createdAt,value
2018-08-30T00:00:43.129Z,15.58
2018-08-30T00:01:46.331Z,15.57
2018-08-30T00:02:49.630Z,15.58
2018-08-30T00:03:52.763Z,15.60
2018-08-30T00:04:57.049Z,15.60
2018-08-30T00:06:02.920Z,15.48
2018-08-30T00:07:06.436Z,15.47
2018-08-30T00:08:09.526Z,15.52
2018-08-30T00:09:12.402Z,15.56
2018-08-30T00:10:15.258Z,15.49
2018-08-30T00:11:18.126Z,15.43
2018-08-30T00:12:21.035Z,15.33
2018-08-30T00:13:24.510Z,15.36
2018-08-30T00:14:27.395Z,15.39
2018-08-30T00:15:30.267Z,15.35
2018-08-30T00:16:33.305Z,15.36
2018-08-30T00:17:37.210Z,15.36
2018-08-30T00:18:41.482Z,15.37
2018-08-30T00:19:44.728Z,15.35
2018-08-30T00:20:48.430Z,15.36
2018-08-30T00:21:52.081Z,15.37
2018-08-30T00:22:55.086Z,15.31
2018-08-30T00:23:59.091Z,15.32
2018-08-30T00:25:02.261Z,15.33
2018-08-30T00:26:07.690Z,15.29
2018-08-30T00:27:10.612Z,15.32
2018-08-30T00:28:13.488Z,15.34
2018-08-30T00:29:16.408Z,15.32
2018-08-30T00:30:19.314Z,15.34
2018-08-30T00:31:22.198Z,15.37
2018-08-30T00:32:25.668Z,15.34
2018-08-30T00:33:28.541Z,15.29
2018-08-30T00:34:31.554Z,15.32
2018-08-30T00:35:34.457Z,15.34
2018-08-30T00:36:37.353Z,15.33
2018-08-30T00:37:40.217Z,15.26
2018-08-30T00:38:43.681Z,15.33
2018-08-30T00:39:46.865Z,15.21
2018-08-30T00:40:49.796Z,15.19
2018-08-30T00:41:52.690Z,15.10
2018-08-30T00:42:56.514Z,15.11
2018-08-30T00:43:59.481Z,15.15
2018-08-30T00:45:03.414Z,15.09
2018-08-30T00:46:06.324Z,15.10
2018-08-30T00:47:10.307Z,15.06
2018-08-30T00:48:27.625Z,15.09
2018-08-30T00:49:31.053Z,15.10
2018-08-30T00:50:34.261Z,15.06
2018-08-30T00:51:42.243Z,15.13
2018-08-30T00:52:47.252Z,15.19
2018-08-30T00:53:50.742Z,15.13
2018-08-30T00:54:55.955Z,15.07
2018-08-30T00:55:59.648Z,15.15
2018-08-30T00:57:03.234Z,15.16
2018-08-30T00:58:07.382Z,15.28
2018-08-30T00:59:11.429Z,15.19
2018-08-30T01:00:14.337Z,15.18
2018-08-30T01:01:17.249Z,15.16
2018-08-30T01:02:20.190Z,15.16
2018-08-30T01:03:24.011Z,15.13
2018-08-30T01:04:27.293Z,15.14
2018-08-30T01:05:30.154Z,15.14
2018-08-30T01:06:33.006Z,15.14
2018-08-30T01:07:38.852Z,15.09
2018-08-30T01:08:41.802Z,15.10
2018-08-30T01:09:45.685Z,15.13
2018-08-30T01:10:49.072Z,15.19
2018-08-30T01:11:51.933Z,15.15
2018-08-30T01:12:56.709Z,15.16
2018-08-30T01:13:59.643Z,15.14
2018-08-30T01:15:02.693Z,15.12
2018-08-30T01:16:05.560Z,15.05
2018-08-30T01:17:08.900Z,15.09
2018-08-30T01:18:11.818Z,15.08
2018-08-30T01:19:14.851Z,15.03
2018-08-30T01:20:17.868Z,14.97
2018-08-30T01:21:20.701Z,14.92
2018-08-30T01:22:23.669Z,14.90
2018-08-30T01:23:26.997Z,14.93
2018-08-30T01:24:29.971Z,14.92
2018-08-30T01:25:34.268Z,14.94
2018-08-30T01:26:38.105Z,14.95
2018-08-30T01:27:40.948Z,14.99
2018-08-30T01:28:44.434Z,14.98
2018-08-30T01:29:48.556Z,15.01
2018-08-30T01:30:51.433Z,15.00
2018-08-30T01:31:54.341Z,14.99
2018-08-30T01:32:57.189Z,15.01
2018-08-30T01:34:00.858Z,14.98
2018-08-30T01:35:03.970Z,15.01
2018-08-30T01:36:07.279Z,15.01
2018-08-30T01:37:10.790Z,14.99
2018-08-30T01:38:14.576Z,15.05
2018-08-30T01:39:17.959Z,15.03
2018-08-30T01:40:22.290Z,15.04
2018-08-30T01:41:27.805Z,15.00
2018-08-30T01:42:30.678Z,14.96
2018-08-30T01:43:34.583Z,15.03
2018-08-30T01:44:38.892Z,15.06
2018-08-30T01:45:41.933Z,15.10
2018-08-30T01:46:44.829Z,15.04
2018-08-30T01:47:49.678Z,15.06
2018-08-30T01:48:53.408Z,15.01
2018-08-30T01:49:56.545Z,14.96
2018-08-30T01:50:59.544Z,14.95
2018-08-30T01:52:02.464Z,14.99
2018-08-30T01:53:06.437Z,14.92
2018-08-30T01:54:09.782Z,14.99
2018-08-30T01:55:12.649Z,15.04
2018-08-30T01:56:16.428Z,14.95
2018-08-30T01:57:19.423Z,14.96
2018-08-30T01:58:22.264Z,14.82
2018-08-30T01:59:25.120Z,14.84
2018-08-30T02:00:29.259Z,14.84
2018-08-30T02:01:32.117Z,14.77
2018-08-30T02:02:35.198Z,14.75
2018-08-30T02:03:39.119Z,14.88
2018-08-30T02:04:42.914Z,14.75
2018-08-30T02:05:45.959Z,14.81
2018-08-30T02:06:49.571Z,14.87
2018-08-30T02:07:52.450Z,14.88
2018-08-30T02:08:55.432Z,14.90
2018-08-30T02:09:58.288Z,14.85
2018-08-30T02:11:01.130Z,14.86
2018-08-30T02:12:04.014Z,14.88
2018-08-30T02:13:07.189Z,14.79
2018-08-30T02:14:10.058Z,14.84
2018-08-30T02:15:13.265Z,14.88
2018-08-30T02:16:16.850Z,14.95
2018-08-30T02:17:19.729Z,15.00
2018-08-30T02:18:22.603Z,15.01
2018-08-30T02:19:26.254Z,14.93
2018-08-30T02:20:29.085Z,14.90
2018-08-30T02:21:31.953Z,14.79
2018-08-30T02:22:34.804Z,14.84
2018-08-30T02:23:37.671Z,14.87
2018-08-30T02:24:41.150Z,14.88
2018-08-30T02:25:44.337Z,14.86
2018-08-30T02:26:47.184Z,14.94
2018-08-30T02:27:50.039Z,14.76
2018-08-30T02:28:52.888Z,14.80
2018-08-30T02:29:55.738Z,14.76
2018-08-30T02:30:58.613Z,14.75
2018-08-30T02:32:01.784Z,14.72
2018-08-30T02:33:04.684Z,14.79
2018-08-30T02:34:07.553Z,14.73
2018-08-30T02:35:10.418Z,14.78
2018-08-30T02:36:13.344Z,14.75
2018-08-30T02:37:16.236Z,14.80
2018-08-30T02:38:19.433Z,14.84
2018-08-30T02:39:22.311Z,14.67
2018-08-30T02:40:25.157Z,14.73
2018-08-30T02:41:28.017Z,14.79
2018-08-30T02:42:30.846Z,14.81
2018-08-30T02:43:33.710Z,14.75
2018-08-30T02:44:37.887Z,14.77
2018-08-30T02:45:40.752Z,14.77
2018-08-30T02:46:43.629Z,14.72
2018-08-30T02:47:46.510Z,14.73
2018-08-30T02:48:49.410Z,14.70
2018-08-30T02:49:52.261Z,14.72
2018-08-30T02:50:56.474Z,14.69
2018-08-30T02:51:59.364Z,14.77
2018-08-30T02:53:02.195Z,14.80
2018-08-30T02:54:05.045Z,14.86
2018-08-30T02:55:07.905Z,14.79
2018-08-30T02:56:10.793Z,14.76
2018-08-30T02:57:14.104Z,14.74
2018-08-30T02:58:16.980Z,14.73
2018-08-30T02:59:19.892Z,14.76
2018-08-30T03:00:23.048Z,14.73
2018-08-30T03:01:26.647Z,14.73
2018-08-30T03:02:29.641Z,14.75
2018-08-30T03:03:32.909Z,14.74
2018-08-30T03:04:35.769Z,14.72
2018-08-30T03:05:38.630Z,14.76
2018-08-30T03:06:41.502Z,14.73
2018-08-30T03:07:44.404Z,14.68
2018-08-30T03:08:47.304Z,14.73
2018-08-30T03:09:50.607Z,14.70
2018-08-30T03:10:53.495Z,14.69
2018-08-30T03:11:56.388Z,14.73
2018-08-30T03:12:59.229Z,14.71
2018-08-30T03:14:02.131Z,14.76
2018-08-30T03:15:05.111Z,14.71
2018-08-30T03:16:07.976Z,14.70
2018-08-30T03:17:10.829Z,14.62
2018-08-30T03:18:13.717Z,14.58
2018-08-30T03:19:16.558Z,14.62
2018-08-30T03:20:19.416Z,14.62
2018-08-30T03:21:22.914Z,14.60
2018-08-30T03:22:26.257Z,14.57
2018-08-30T03:23:29.113Z,14.63
2018-08-30T03:24:31.976Z,14.64
2018-08-30T03:25:34.818Z,14.66
2018-08-30T03:26:37.669Z,14.69
2018-08-30T03:27:40.932Z,14.68
2018-08-30T03:28:44.289Z,14.70
2018-08-30T03:29:47.173Z,14.71
2018-08-30T03:30:50.179Z,14.76
2018-08-30T03:31:53.001Z,14.78
2018-08-30T03:32:55.857Z,14.80
2018-08-30T03:33:58.722Z,14.68
2018-08-30T03:35:02.002Z,14.71
2018-08-30T03:36:04.861Z,14.71
2018-08-30T03:37:07.725Z,14.71
2018-08-30T03:38:10.598Z,14.64
2018-08-30T03:39:13.448Z,14.63
2018-08-30T03:40:16.327Z,14.59
2018-08-30T03:41:19.615Z,14.63
2018-08-30T03:42:22.484Z,14.66
2018-08-30T03:43:25.368Z,14.64
2018-08-30T03:44:28.242Z,14.63
2018-08-30T03:45:31.100Z,14.62
2018-08-30T03:46:34.043Z,14.54
2018-08-30T03:47:37.341Z,14.58
2018-08-30T03:48:40.194Z,14.50
2018-08-30T03:49:43.093Z,14.47
2018-08-30T03:50:46.501Z,14.48
2018-08-30T03:51:49.367Z,14.37
2018-08-30T03:52:52.261Z,14.48
2018-08-30T03:53:55.544Z,14.50
2018-08-30T03:54:58.498Z,14.41
2018-08-30T03:56:01.369Z,14.50
2018-08-30T03:57:04.473Z,14.55
2018-08-30T03:58:07.367Z,14.55
2018-08-30T03:59:10.225Z,14.52
2018-08-30T04:00:13.411Z,14.43
2018-08-30T04:01:16.926Z,14.48
2018-08-30T04:02:19.774Z,14.41
2018-08-30T04:03:24.453Z,14.36
2018-08-30T04:04:27.573Z,14.35
2018-08-30T04:05:30.442Z,14.38
2018-08-30T04:06:33.713Z,14.37
2018-08-30T04:07:36.658Z,14.36
2018-08-30T04:08:39.534Z,14.34
2018-08-30T04:09:43.253Z,14.31
2018-08-30T04:10:47.093Z,14.33
2018-08-30T04:11:50.126Z,14.35
2018-08-30T04:12:53.424Z,14.33
2018-08-30T04:13:56.267Z,14.34
2018-08-30T04:14:59.240Z,14.32
2018-08-30T04:16:02.098Z,14.36
2018-08-30T04:17:04.987Z,14.27
2018-08-30T04:18:07.852Z,14.21
2018-08-30T04:19:11.059Z,14.18
2018-08-30T04:20:13.965Z,14.21
2018-08-30T04:21:16.817Z,14.13
2018-08-30T04:22:19.691Z,14.15
2018-08-30T04:23:22.548Z,14.19
2018-08-30T04:24:25.716Z,14.14
2018-08-30T04:25:29.817Z,14.13
2018-08-30T04:26:33.820Z,14.16
2018-08-30T04:27:36.698Z,14.23
2018-08-30T04:28:39.576Z,14.13
2018-08-30T04:29:42.445Z,14.11
2018-08-30T04:30:45.418Z,14.16
2018-08-30T04:31:48.700Z,14.22
2018-08-30T04:32:51.558Z,14.25
2018-08-30T04:33:54.581Z,14.25
2018-08-30T04:34:58.476Z,14.21
2018-08-30T04:36:01.350Z,14.17
2018-08-30T04:37:04.216Z,14.17
2018-08-30T04:38:07.496Z,14.13
2018-08-30T04:39:10.360Z,14.17
2018-08-30T04:40:13.818Z,14.21
2018-08-30T04:41:16.697Z,14.17
2018-08-30T04:42:19.635Z,14.11
2018-08-30T04:43:22.549Z,14.18
2018-08-30T04:44:25.743Z,14.16
2018-08-30T04:45:30.487Z,14.06
2018-08-30T04:46:33.356Z,14.05
2018-08-30T04:47:36.491Z,14.01
2018-08-30T04:48:39.765Z,14.06
2018-08-30T04:49:42.652Z,14.16
2018-08-30T04:50:45.516Z,14.20
2018-08-30T04:51:48.407Z,14.19
2018-08-30T04:52:51.269Z,14.10
2018-08-30T04:53:54.231Z,14.07
2018-08-30T04:54:57.106Z,14.08
2018-08-30T04:55:59.993Z,14.09
2018-08-30T04:57:03.314Z,14.02
2018-08-30T04:58:06.201Z,13.98
2018-08-30T04:59:09.060Z,14.02
2018-08-30T05:00:11.969Z,14.02
2018-08-30T05:01:14.816Z,14.02
2018-08-30T05:02:17.709Z,13.97
2018-08-30T05:03:20.957Z,14.01
2018-08-30T05:04:24.249Z,14.05
2018-08-30T05:05:27.744Z,13.99
2018-08-30T05:06:30.657Z,14.09
2018-08-30T05:07:33.563Z,14.08
2018-08-30T05:08:36.424Z,14.10
2018-08-30T05:09:39.656Z,14.10
2018-08-30T05:10:42.609Z,14.02
2018-08-30T05:11:46.147Z,14.03
2018-08-30T05:12:49.037Z,14.07
2018-08-30T05:13:51.946Z,14.08
2018-08-30T05:14:54.826Z,14.03
2018-08-30T05:15:58.145Z,14.05
2018-08-30T05:17:02.281Z,14.09
2018-08-30T05:18:07.007Z,14.03
2018-08-30T05:19:11.819Z,14.02
2018-08-30T05:20:14.862Z,14.04
2018-08-30T05:21:17.805Z,14.06
2018-08-30T05:22:21.115Z,14.18
2018-08-30T05:23:24.149Z,14.18
2018-08-30T05:24:27.251Z,14.12
2018-08-30T05:25:30.310Z,14.10
2018-08-30T05:26:33.837Z,14.13
2018-08-30T05:27:36.794Z,14.10
2018-08-30T05:28:40.411Z,14.12
2018-08-30T05:29:43.394Z,14.05
2018-08-30T05:30:46.390Z,14.08
2018-08-30T05:34:04.295Z,14.08
2018-08-30T05:35:07.492Z,14.12
2018-08-30T05:36:10.420Z,14.10
2018-08-30T05:37:13.456Z,14.08
2018-08-30T05:38:21.344Z,14.12
2018-08-30T05:39:25.421Z,14.19
2018-08-30T05:40:28.962Z,14.18
2018-08-30T05:41:32.239Z,14.19
2018-08-30T05:42:35.350Z,14.20
2018-08-30T05:43:38.232Z,14.28
2018-08-30T05:44:41.158Z,14.12
2018-08-30T05:45:44.147Z,14.00
2018-08-30T05:46:47.612Z,14.03
2018-08-30T05:47:51.417Z,14.17
2018-08-30T05:48:54.454Z,14.18
2018-08-30T05:49:58.143Z,14.19
2018-08-30T05:51:03.287Z,14.08
2018-08-30T05:52:08.030Z,14.07
2018-08-30T05:53:11.163Z,14.17
2018-08-30T05:54:15.480Z,14.13
2018-08-30T05:55:19.715Z,14.13
2018-08-30T05:56:25.048Z,14.15
2018-08-30T05:57:28.852Z,14.14
2018-08-30T05:58:31.816Z,14.11
2018-08-30T05:59:34.777Z,14.11
2018-08-30T06:00:38.188Z,14.05
2018-08-30T06:01:41.089Z,14.05
2018-08-30T06:02:45.627Z,14.08
2018-08-30T06:03:48.594Z,14.12
2018-08-30T06:04:51.593Z,14.08
2018-08-30T06:05:54.611Z,14.15
2018-08-30T06:06:58.030Z,14.17
2018-08-30T06:08:00.924Z,14.20
2018-08-30T06:09:05.357Z,14.12
2018-08-30T06:10:08.226Z,14.03
2018-08-30T06:11:11.155Z,14.03
2018-08-30T06:12:14.786Z,14.04
2018-08-30T06:13:18.197Z,14.06
2018-08-30T06:14:21.915Z,14.02
2018-08-30T06:15:24.887Z,14.06
2018-08-30T06:16:27.928Z,14.07
2018-08-30T06:17:30.822Z,13.98
2018-08-30T06:18:34.010Z,14.01
2018-08-30T06:19:39.006Z,14.03
2018-08-30T06:20:42.379Z,13.96
2018-08-30T06:21:45.416Z,13.93
2018-08-30T06:22:48.314Z,13.97
2018-08-30T06:23:51.502Z,14.01
2018-08-30T06:24:55.262Z,13.98
2018-08-30T06:25:58.846Z,13.89
2018-08-30T06:27:03.729Z,13.95
2018-08-30T06:28:06.792Z,13.88
2018-08-30T06:29:10.051Z,13.85
2018-08-30T06:30:13.026Z,13.86
2018-08-30T06:31:18.067Z,13.83
2018-08-30T06:32:23.335Z,13.92
2018-08-30T06:33:35.484Z,13.84
2018-08-30T06:34:40.851Z,13.83
2018-08-30T06:35:44.676Z,13.85
2018-08-30T06:36:47.615Z,13.86
2018-08-30T06:37:52.764Z,13.96
2018-08-30T06:38:56.652Z,13.95
2018-08-30T06:40:01.497Z,13.99
2018-08-30T06:41:06.242Z,13.95
2018-08-30T06:42:10.285Z,13.98
2018-08-30T06:43:15.059Z,14.03
2018-08-30T06:44:20.566Z,13.99
2018-08-30T06:45:27.383Z,14.13
2018-08-30T06:46:31.284Z,14.08
2018-08-30T06:47:34.253Z,13.98
2018-08-30T06:48:38.471Z,14.09
2018-08-30T06:49:41.698Z,14.11
2018-08-30T06:50:44.708Z,14.11
2018-08-30T06:51:48.118Z,14.08
2018-08-30T06:52:51.240Z,14.09
2018-08-30T06:53:54.324Z,14.09
2018-08-30T06:54:57.245Z,14.12
2018-08-30T06:56:00.722Z,14.12
2018-08-30T06:57:04.304Z,14.12
2018-08-30T06:58:08.903Z,14.09
2018-08-30T06:59:12.809Z,14.11
2018-08-30T07:00:17.504Z,14.14
2018-08-30T07:01:21.310Z,14.22
2018-08-30T07:02:24.484Z,14.23
2018-08-30T07:03:27.509Z,14.29
2018-08-30T07:04:32.137Z,14.31
2018-08-30T07:05:35.451Z,14.35
2018-08-30T07:06:38.509Z,14.34
2018-08-30T07:07:41.466Z,14.27
2018-08-30T07:08:44.434Z,14.31
2018-08-30T07:09:47.430Z,14.34
2018-08-30T07:10:50.748Z,14.33
2018-08-30T07:11:53.793Z,14.42
2018-08-30T07:12:56.708Z,14.42
2018-08-30T07:13:59.645Z,14.44
2018-08-30T07:15:04.210Z,14.37
2018-08-30T07:16:07.132Z,14.37
2018-08-30T07:17:09.997Z,14.36
2018-08-30T07:18:12.889Z,14.38
2018-08-30T07:19:15.780Z,14.39
2018-08-30T07:20:18.679Z,14.36
2018-08-30T07:21:21.568Z,14.51
2018-08-30T07:22:24.808Z,14.53
2018-08-30T07:23:27.663Z,14.57
2018-08-30T07:24:30.551Z,14.70
2018-08-30T07:25:34.081Z,14.73
2018-08-30T07:26:36.926Z,14.72
2018-08-30T07:27:39.825Z,14.79
2018-08-30T07:29:55.041Z,14.75
2018-08-30T07:30:57.921Z,14.84
2018-08-30T07:32:00.800Z,14.82
2018-08-30T07:33:03.645Z,14.80
2018-08-30T07:34:07.874Z,14.91
2018-08-30T07:35:10.916Z,14.90
2018-08-30T07:36:14.414Z,14.90
2018-08-30T07:37:17.269Z,14.99
2018-08-30T07:38:20.130Z,15.06
2018-08-30T07:39:23.611Z,15.14
2018-08-30T07:40:26.936Z,15.08
2018-08-30T07:41:29.789Z,15.09
2018-08-30T07:42:33.692Z,15.07
2018-08-30T07:43:36.681Z,15.11
2018-08-30T07:44:40.780Z,15.24
2018-08-30T07:45:43.962Z,15.17
2018-08-30T07:46:47.495Z,15.33
2018-08-30T07:47:51.239Z,15.42
2018-08-30T07:48:54.213Z,15.52
2018-08-30T07:49:57.217Z,15.51
2018-08-30T07:51:00.295Z,15.37
2018-08-30T07:52:03.203Z,15.45
2018-08-30T07:53:09.525Z,15.44
2018-08-30T07:54:12.436Z,15.57
2018-08-30T07:55:15.335Z,15.71
2018-08-30T07:56:18.353Z,15.62
2018-08-30T07:57:21.280Z,15.61
2018-08-30T07:58:24.215Z,15.47
2018-08-30T07:59:27.517Z,15.40
2018-08-30T08:00:30.453Z,15.44
2018-08-30T08:08:54.425Z,15.16
2018-08-30T08:09:57.921Z,15.09
2018-08-30T08:11:00.800Z,15.06
2018-08-30T08:12:03.737Z,15.11
2018-08-30T08:13:09.676Z,15.21
2018-08-30T08:14:13.900Z,15.22
2018-08-30T08:15:18.508Z,15.27
2018-08-30T08:16:21.507Z,15.30
2018-08-30T08:17:24.528Z,15.31
2018-08-30T08:18:27.449Z,15.47
2018-08-30T08:19:33.687Z,15.53
2018-08-30T08:20:36.913Z,15.52
2018-08-30T08:21:42.188Z,15.65
2018-08-30T08:22:49.965Z,15.70
2018-08-30T08:23:55.350Z,15.90
2018-08-30T08:24:59.788Z,15.91
2018-08-30T08:26:04.963Z,15.96
2018-08-30T08:27:09.369Z,15.91
2018-08-30T08:28:13.782Z,15.74
2018-08-30T08:29:18.579Z,15.70
2018-08-30T08:30:22.478Z,15.62
2018-08-30T08:31:29.743Z,15.55
2018-08-30T08:32:32.886Z,15.55
2018-08-30T08:33:35.931Z,15.56
2018-08-30T08:34:39.560Z,15.71
2018-08-30T08:35:43.699Z,15.89
2018-08-30T08:36:46.906Z,16.11
2018-08-30T08:37:51.621Z,16.03
2018-08-30T08:38:57.642Z,15.83
2018-08-30T08:40:00.874Z,15.94
2018-08-30T08:41:04.614Z,16.15
2018-08-30T08:42:07.694Z,16.13
2018-08-30T08:43:11.860Z,15.99
2018-08-30T08:44:14.940Z,16.15
2018-08-30T08:45:17.965Z,16.40
2018-08-30T08:46:22.727Z,16.55
2018-08-30T08:47:26.361Z,16.56
2018-08-30T08:48:29.644Z,16.36
2018-08-30T08:49:33.485Z,16.27
2018-08-30T08:50:36.530Z,16.25
2018-08-30T08:51:39.751Z,16.40
2018-08-30T08:52:45.164Z,16.53
2018-08-30T08:53:48.581Z,16.53
2018-08-30T08:54:52.683Z,16.22
2018-08-30T08:55:56.547Z,16.15
2018-08-30T08:56:59.863Z,15.99
2018-08-30T08:58:16.671Z,16.14
2018-08-30T08:59:20.660Z,15.93
2018-08-30T09:00:31.335Z,15.90
2018-08-30T09:01:35.483Z,16.07
2018-08-30T09:02:39.454Z,16.05
2018-08-30T09:03:43.113Z,16.14
2018-08-30T09:04:46.091Z,16.11
2018-08-30T09:05:50.030Z,16.32
2018-08-30T09:06:52.981Z,16.30
2018-08-30T09:07:56.098Z,16.20
2018-08-30T09:08:59.181Z,16.14
2018-08-30T09:10:02.212Z,16.28
2018-08-30T09:11:05.536Z,16.30
2018-08-30T09:12:08.973Z,16.38
2018-08-30T09:13:12.416Z,16.53
2018-08-30T09:14:15.402Z,16.50
2018-08-30T09:15:18.379Z,16.80
2018-08-30T09:16:22.391Z,16.98
2018-08-30T09:17:25.332Z,17.05
2018-08-30T09:18:29.835Z,17.20
2018-08-30T09:19:33.865Z,17.05
2018-08-30T09:20:37.390Z,17.14
2018-08-30T09:21:42.125Z,17.50
2018-08-30T09:22:45.864Z,18.10
2018-08-30T09:23:49.053Z,18.86
2018-08-30T09:24:52.342Z,19.40
2018-08-30T09:25:56.244Z,19.09
2018-08-30T09:27:00.234Z,19.71
2018-08-30T09:28:03.292Z,20.08
2018-08-30T09:29:06.993Z,19.42
2018-08-30T09:30:09.849Z,19.62
2018-08-30T09:31:13.285Z,20.28
2018-08-30T09:32:16.404Z,20.37
2018-08-30T09:33:21.544Z,20.02
2018-08-30T09:34:24.479Z,19.31
2018-08-30T09:35:27.470Z,18.37
2018-08-30T09:36:30.447Z,18.21
2018-08-30T09:37:33.954Z,18.35
2018-08-30T09:38:38.406Z,17.99
2018-08-30T09:39:41.271Z,18.70
2018-08-30T09:40:44.185Z,18.97
2018-08-30T09:41:47.692Z,19.60
2018-08-30T09:42:50.648Z,19.37
2018-08-30T09:43:54.074Z,18.64
2018-08-30T09:44:57.781Z,18.56
2018-08-30T09:46:02.096Z,18.34
2018-08-30T09:47:05.815Z,18.39
2018-08-30T09:48:09.607Z,18.48
2018-08-30T09:49:13.552Z,18.43
2018-08-30T09:50:16.972Z,18.34
2018-08-30T09:51:20.535Z,18.32
2018-08-30T09:52:26.088Z,17.86
2018-08-30T09:53:29.395Z,17.07
2018-08-30T09:54:32.253Z,16.80
2018-08-30T09:55:38.114Z,16.69
2018-08-30T09:56:41.511Z,16.53
2018-08-30T09:57:44.421Z,16.66
2018-08-30T09:58:47.369Z,16.65
2018-08-30T09:59:50.458Z,16.62
2018-08-30T10:00:58.184Z,16.71
2018-08-30T10:02:08.237Z,16.83
2018-08-30T10:03:11.165Z,16.90
2018-08-30T10:04:14.604Z,16.90
2018-08-30T10:05:17.652Z,17.00
2018-08-30T10:06:21.090Z,17.21
2018-08-30T10:07:23.979Z,17.26
2018-08-30T10:08:27.286Z,17.28
2018-08-30T10:09:30.620Z,17.53
2018-08-30T10:10:33.492Z,18.19
2018-08-30T10:11:36.376Z,18.46
2018-08-30T10:12:39.409Z,18.92
2018-08-30T10:13:42.318Z,19.41
2018-08-30T10:14:46.658Z,19.80
2018-08-30T10:15:49.660Z,19.99
2018-08-30T10:16:54.608Z,20.22
2018-08-30T10:17:57.592Z,20.38
2018-08-30T10:19:01.387Z,20.51
2018-08-30T10:20:04.302Z,20.66
2018-08-30T10:21:07.288Z,19.89
2018-08-30T10:22:11.181Z,19.29
2018-08-30T10:23:14.179Z,18.52
2018-08-30T10:24:17.085Z,18.99
2018-08-30T10:25:21.726Z,19.53
2018-08-30T10:26:24.995Z,20.54
2018-08-30T10:27:28.005Z,20.45
2018-08-30T10:28:32.158Z,20.08
2018-08-30T10:29:36.597Z,21.25
2018-08-30T10:30:39.533Z,21.06
2018-08-30T10:33:08.118Z,22.42
2018-08-30T10:34:11.960Z,22.45
2018-08-30T10:35:15.710Z,22.05
2018-08-30T10:36:21.645Z,20.32
2018-08-30T10:37:25.725Z,19.37
2018-08-30T10:38:33.200Z,19.24
2018-08-30T10:39:37.325Z,18.49
2018-08-30T10:40:40.291Z,17.87
2018-08-30T10:41:43.194Z,18.17
2018-08-30T10:42:47.276Z,18.32
2018-08-30T10:43:51.024Z,18.32
2018-08-30T10:44:54.156Z,18.70
2018-08-30T10:45:58.543Z,18.82
2018-08-30T10:47:02.085Z,18.98
2018-08-30T10:48:07.439Z,18.57
2018-08-30T10:49:10.858Z,18.61
2018-08-30T10:50:15.082Z,18.81
2018-08-30T10:51:20.365Z,19.30
2018-08-30T10:52:25.935Z,19.60
2018-08-30T10:54:53.114Z,19.91
2018-08-30T10:55:58.044Z,20.45
2018-08-30T10:57:02.891Z,20.93
2018-08-30T10:58:06.115Z,21.06
2018-08-30T10:59:10.070Z,20.97
2018-08-30T11:00:13.755Z,21.80
2018-08-30T11:01:16.642Z,20.95
2018-08-30T11:02:20.104Z,21.75
2018-08-30T11:03:23.509Z,21.88
2018-08-30T11:04:27.561Z,21.58
2018-08-30T11:05:31.956Z,21.06
2018-08-30T11:06:40.138Z,20.84
2018-08-30T11:07:43.220Z,20.80
2018-08-30T11:08:46.206Z,20.30
2018-08-30T11:09:49.709Z,19.73
2018-08-30T11:10:52.635Z,19.36
2018-08-30T11:11:56.404Z,19.27
2018-08-30T11:13:03.085Z,19.10
2018-08-30T11:14:06.813Z,18.73
2018-08-30T11:15:09.767Z,18.72
2018-08-30T11:16:13.249Z,18.57
2018-08-30T11:17:16.166Z,18.51
2018-08-30T11:18:19.102Z,18.63
2018-08-30T11:19:23.572Z,18.60
2018-08-30T11:20:26.469Z,18.21
2018-08-30T11:21:29.377Z,17.68
2018-08-30T11:22:34.610Z,17.73
2018-08-30T11:23:41.289Z,17.77
2018-08-30T11:24:44.576Z,17.86
2018-08-30T11:25:51.712Z,17.55
2018-08-30T11:26:58.638Z,17.75
2018-08-30T11:28:01.659Z,17.82
2018-08-30T11:29:04.905Z,17.57
2018-08-30T11:30:07.865Z,17.23
2018-08-30T11:31:10.867Z,17.45
2018-08-30T11:32:13.727Z,17.41
2018-08-30T11:33:16.615Z,17.70
2018-08-30T11:34:19.578Z,17.82
2018-08-30T11:35:22.999Z,18.45
2018-08-30T11:36:25.917Z,18.19
2018-08-30T11:37:29.683Z,18.92
2018-08-30T11:38:32.699Z,19.24
2018-08-30T11:39:35.609Z,19.15
2018-08-30T11:40:38.518Z,18.64
2018-08-30T11:41:41.933Z,18.42
2018-08-30T11:42:45.055Z,19.28
2018-08-30T11:43:48.936Z,19.79
2018-08-30T11:44:51.837Z,19.46
2018-08-30T11:45:54.957Z,18.93
2018-08-30T11:47:04.556Z,18.54
2018-08-30T11:48:07.504Z,18.44
2018-08-30T11:49:10.719Z,18.27
2018-08-30T11:50:15.633Z,18.34
2018-08-30T11:51:20.291Z,18.16
2018-08-30T11:52:24.595Z,18.00
2018-08-30T11:53:27.949Z,17.83
2018-08-30T11:54:31.411Z,18.03
2018-08-30T11:55:34.297Z,17.93
2018-08-30T11:56:38.723Z,17.97
2018-08-30T11:57:41.770Z,17.82
2018-08-30T11:58:44.711Z,18.22
2018-08-30T11:59:47.575Z,18.27
2018-08-30T12:00:51.977Z,17.96
2018-08-30T12:01:54.969Z,18.19
2018-08-30T12:02:58.916Z,18.02
2018-08-30T12:04:01.921Z,18.27
2018-08-30T12:05:06.433Z,18.46
2018-08-30T12:06:09.389Z,18.27
2018-08-30T12:07:13.733Z,18.28
2018-08-30T12:08:17.331Z,18.45
2018-08-30T12:09:20.480Z,18.50
2018-08-30T12:10:24.574Z,18.75
2018-08-30T12:11:28.737Z,18.95
2018-08-30T12:12:31.747Z,19.00
2018-08-30T12:13:34.606Z,18.97
2018-08-30T12:14:37.507Z,18.79
2018-08-30T12:15:40.445Z,18.88
2018-08-30T12:16:44.095Z,18.82
2018-08-30T12:17:50.692Z,18.86
2018-08-30T12:18:53.714Z,19.12
2018-08-30T12:19:57.353Z,19.31
2018-08-30T12:21:01.431Z,19.11
2018-08-30T12:22:05.729Z,19.41
2018-08-30T12:23:11.327Z,19.16
2018-08-30T12:24:14.380Z,18.95
2018-08-30T12:25:21.455Z,19.10
2018-08-30T12:26:25.314Z,18.96
2018-08-30T12:27:29.507Z,19.24
2018-08-30T12:28:34.718Z,19.33
2018-08-30T12:29:39.749Z,19.19
2018-08-30T12:30:44.638Z,19.43
2018-08-30T12:31:49.146Z,19.80
2018-08-30T12:32:53.581Z,20.13
2018-08-30T12:34:02.636Z,20.31
2018-08-30T12:35:05.716Z,19.68
2018-08-30T12:36:09.422Z,19.63
2018-08-30T12:37:12.418Z,19.33
2018-08-30T12:38:20.158Z,19.32
2018-08-30T12:39:25.200Z,19.47
2018-08-30T12:40:28.292Z,19.50
2018-08-30T12:41:32.202Z,19.51
2018-08-30T12:42:35.544Z,19.40
2018-08-30T12:43:38.949Z,19.22
2018-08-30T12:44:41.630Z,19.45
2018-08-30T12:45:44.554Z,19.75
2018-08-30T12:46:48.148Z,19.78
2018-08-30T12:47:51.597Z,20.13
2018-08-30T12:49:01.355Z,20.65
2018-08-30T12:50:04.402Z,21.07
2018-08-30T12:51:07.487Z,21.07
2018-08-30T12:52:10.644Z,21.10
2018-08-30T12:53:13.597Z,21.44
2018-08-30T12:54:16.626Z,21.82
2018-08-30T12:55:20.731Z,22.05
2018-08-30T12:56:23.864Z,22.31
2018-08-30T12:57:27.472Z,22.50
2018-08-30T12:58:30.506Z,23.03
2018-08-30T12:59:39.340Z,22.63
2018-08-30T13:00:42.192Z,22.71
2018-08-30T13:01:47.040Z,22.84
2018-08-30T13:02:49.945Z,23.07
2018-08-30T13:03:53.085Z,22.73
2018-08-30T13:04:56.178Z,22.28
2018-08-30T13:05:59.182Z,20.88
2018-08-30T13:07:02.123Z,21.19
2018-08-30T13:08:06.122Z,21.33
2018-08-30T13:09:12.913Z,21.50
2018-08-30T13:10:19.729Z,20.75
2018-08-30T13:11:22.854Z,20.35
2018-08-30T13:12:25.847Z,20.19
2018-08-30T13:13:29.455Z,20.24
2018-08-30T13:14:34.834Z,20.13
2018-08-30T13:15:38.827Z,19.88
2018-08-30T13:16:42.237Z,19.62
2018-08-30T13:17:46.690Z,20.57
2018-08-30T13:18:50.499Z,20.48
2018-08-30T13:19:53.480Z,20.85
2018-08-30T13:20:56.928Z,21.00
2018-08-30T13:22:01.734Z,20.08
2018-08-30T13:23:05.471Z,19.71
2018-08-30T13:24:09.829Z,19.46
2018-08-30T13:25:14.361Z,19.74
2018-08-30T13:26:19.669Z,19.68
2018-08-30T13:27:24.079Z,19.57
2018-08-30T13:28:27.233Z,20.01
2018-08-30T13:29:31.888Z,19.42
2018-08-30T13:30:35.928Z,18.93
2018-08-30T13:31:41.936Z,19.38
2018-08-30T13:32:46.802Z,19.88
2018-08-30T13:33:51.825Z,20.42
2018-08-30T13:34:55.839Z,21.06
2018-08-30T13:35:58.813Z,21.91
2018-08-30T13:37:03.610Z,22.09
2018-08-30T13:38:06.603Z,21.91
2018-08-30T13:39:11.081Z,20.86
2018-08-30T13:40:14.173Z,21.42
2018-08-30T13:41:18.057Z,22.09
2018-08-30T13:42:21.712Z,22.06
2018-08-30T13:43:27.460Z,21.50
2018-08-30T13:44:30.674Z,21.09
2018-08-30T13:45:34.568Z,20.47
2018-08-30T13:46:38.531Z,20.22
2018-08-30T13:47:41.762Z,19.87
2018-08-30T13:48:46.075Z,19.97
2018-08-30T13:49:49.213Z,20.18
2018-08-30T13:50:53.207Z,20.11
2018-08-30T13:51:59.638Z,20.52
2018-08-30T13:53:04.094Z,19.78